Time;durP1;ratioP1;P1;durP2;ratioP2;P2;SDS_P1;SDS_P2;PMS_P1;PMS_P2;Temp;Humidity;BMP_temperature;BMP_pressure;BME280_temperature;BME280_humidity;BME280_pressure;Samples;Min_cycle;Max_cycle;Signal;HPM_P1;HPM_P2
2023/09/02 00:01:28;;;;;;;5.22;3.03;;;;;;;18.43;100.00;100028.28;7390752;19;20029;-58
2023/09/02 00:03:54;;;;;;;8.95;3.13;;;;;;;18.42;100.00;100021.88;7393664;19;20014;-57
2023/09/02 00:06:20;;;;;;;8.00;2.55;;;;;;;18.41;100.00;100020.34;7391480;19;20082;-57
2023/09/02 00:08:47;;;;;;;6.65;2.30;;;;;;;18.39;100.00;100024.97;7393377;19;20010;-57
2023/09/02 00:11:13;;;;;;;5.80;2.78;;;;;;;18.34;100.00;100023.75;7391600;19;20455;-58
2023/09/02 00:13:40;;;;;;;3.10;1.55;;;;;;;18.28;100.00;100030.72;7392314;19;20331;-58
2023/09/02 00:16:07;;;;;;;5.40;2.50;;;;;;;18.30;100.00;100028.13;7391235;19;20031;-58
2023/09/02 00:18:33;;;;;;;4.38;1.42;;;;;;;18.37;100.00;100033.19;7392533;19;20010;-57
2023/09/02 00:20:59;;;;;;;8.77;3.10;;;;;;;18.47;100.00;100031.59;7391064;19;20022;-57
2023/09/02 00:23:25;;;;;;;6.53;2.28;;;;;;;18.54;100.00;100036.66;7392805;19;20495;-57
2023/09/02 00:25:51;;;;;;;10.27;2.63;;;;;;;18.57;100.00;100027.94;7390665;19;20010;-57
2023/09/02 00:28:18;;;;;;;6.05;2.83;;;;;;;18.55;100.00;100029.72;7390798;19;20019;-57
2023/09/02 00:30:44;;;;;;;11.15;4.38;;;;;;;18.56;100.00;100037.66;7391953;19;20357;-57
2023/09/02 00:33:10;;;;;;;3.95;2.13;;;;;;;18.65;100.00;100039.38;7389560;19;20007;-57
2023/09/02 00:35:36;;;;;;;5.40;1.83;;;;;;;18.64;100.00;100041.47;7389832;19;20022;-58
2023/09/02 00:38:02;;;;;;;3.45;1.98;;;;;;;18.65;100.00;100047.84;7390347;19;20015;-58
2023/09/02 00:40:30;;;;;;;12.98;4.00;;;;;;;18.69;100.00;100049.09;7390683;19;20476;-58
2023/09/02 00:42:59;;;;;;;5.20;1.88;;;;;;;18.76;100.00;100047.75;7392534;19;20014;-58
2023/09/02 00:45:25;;;;;;;18.17;2.58;;;;;;;18.79;100.00;100052.34;7393799;19;20026;-58
2023/09/02 00:47:53;;;;;;;6.72;2.08;;;;;;;18.82;100.00;100062.56;7390755;19;20043;-57
2023/09/02 00:50:20;;;;;;;4.38;2.00;;;;;;;18.88;100.00;100055.56;7392100;19;20010;-60
2023/09/02 00:52:49;;;;;;;8.57;2.35;;;;;;;18.89;100.00;100047.88;7391448;19;20022;-57
2023/09/02 00:55:15;;;;;;;2.63;1.35;;;;;;;18.83;100.00;100061.28;7393471;19;20007;-59
2023/09/02 00:57:42;;;;;;;3.38;1.05;;;;;;;18.72;100.00;100050.09;7392080;19;20018;-58
2023/09/02 01:00:09;;;;;;;3.60;1.75;;;;;;;18.62;100.00;100051.75;7389528;19;20011;-58
2023/09/02 01:02:37;;;;;;;3.88;1.15;;;;;;;18.48;100.00;100050.03;7391385;19;20019;-58
2023/09/02 01:05:04;;;;;;;5.30;2.40;;;;;;;18.40;100.00;100043.44;7393379;19;20036;-57
2023/09/02 01:07:31;;;;;;;7.63;2.15;;;;;;;18.32;100.00;100045.28;7395176;19;20013;-58
2023/09/02 01:09:58;;;;;;;2.63;2.10;;;;;;;18.30;100.00;100053.50;7397659;19;20007;-57
2023/09/02 01:12:25;;;;;;;7.57;1.92;;;;;;;18.21;100.00;100040.50;7396563;19;20023;-58
2023/09/02 01:14:51;;;;;;;5.63;2.45;;;;;;;18.16;100.00;100042.06;7400489;19;20018;-57
2023/09/02 01:17:17;;;;;;;8.32;2.55;;;;;;;18.07;100.00;100031.13;7396549;19;20020;-58
2023/09/02 01:19:47;;;;;;;4.43;1.25;;;;;;;17.99;100.00;100037.84;7398659;19;20014;-58
2023/09/02 01:22:38;;;;;;;6.88;1.63;;;;;;;17.91;100.00;100031.97;7396833;19;20031;-58
2023/09/02 01:25:13;;;;;;;10.98;1.40;;;;;;;17.89;100.00;100034.56;7400489;19;20015;-57
2023/09/02 01:27:51;;;;;;;6.13;1.50;;;;;;;17.26;100.00;100028.19;7395921;19;20040;-57
2023/09/02 01:30:21;;;;;;;5.25;2.03;;;;;;;17.87;100.00;100019.44;7397903;19;20018;-57
2023/09/02 01:32:53;;;;;;;5.05;1.83;;;;;;;17.91;100.00;100029.16;7395491;19;20018;-57
2023/09/02 01:35:27;;;;;;;1.35;0.93;;;;;;;17.84;100.00;100028.97;7400245;19;20021;-57
2023/09/02 01:37:58;;;;;;;5.68;1.52;;;;;;;17.75;100.00;100035.69;7397052;19;20019;-57
2023/09/02 01:40:26;;;;;;;2.33;1.73;;;;;;;17.61;100.00;100036.00;7395156;19;20074;-58
2023/09/02 01:42:56;;;;;;;2.03;0.80;;;;;;;17.86;100.00;100029.22;7397129;19;20028;-58
2023/09/02 01:45:26;;;;;;;9.90;1.30;;;;;;;17.80;100.00;100037.69;7399818;19;20010;-57
2023/09/02 01:47:53;;;;;;;5.68;2.50;;;;;;;17.86;100.00;100049.69;7397606;19;20638;-57
2023/09/02 01:50:23;;;;;;;8.88;2.67;;;;;;;17.86;100.00;100044.06;7394940;19;20010;-57
2023/09/02 01:52:50;;;;;;;6.90;2.45;;;;;;;17.88;100.00;100055.59;7394848;19;20404;-58
2023/09/02 01:55:17;;;;;;;4.10;1.45;;;;;;;17.88;100.00;100052.75;7401479;19;20027;-58
2023/09/02 01:57:43;;;;;;;6.90;1.67;;;;;;;17.88;100.00;100049.16;7396850;19;20018;-57
2023/09/02 02:00:11;;;;;;;3.40;1.52;;;;;;;17.86;100.00;100046.88;7395662;19;20549;-58
2023/09/02 02:02:41;;;;;;;10.98;2.97;;;;;;;17.84;100.00;100055.09;7397341;19;20014;-58
2023/09/02 02:05:12;;;;;;;10.05;2.67;;;;;;;17.80;100.00;100048.94;7396131;19;20468;-57
2023/09/02 02:07:46;;;;;;;1.95;1.30;;;;;;;17.83;100.00;100050.72;7396824;19;20010;-57
2023/09/02 02:10:16;;;;;;;8.18;2.10;;;;;;;17.87;100.00;100039.94;7395788;19;20038;-57
2023/09/02 02:12:43;;;;;;;8.00;2.20;;;;;;;17.89;100.00;100040.19;7396402;19;20082;-57
2023/09/02 02:15:11;;;;;;;5.93;1.80;;;;;;;17.89;100.00;100045.81;7400357;19;20022;-57
2023/09/02 02:17:38;;;;;;;3.88;1.65;;;;;;;17.87;100.00;100042.75;7397008;19;20062;-57
2023/09/02 02:20:06;;;;;;;6.07;2.38;;;;;;;17.84;100.00;100055.09;7397137;19;20021;-57
2023/09/02 02:22:32;;;;;;;2.08;1.08;;;;;;;17.85;100.00;100062.25;7395208;19;20474;-57
2023/09/02 02:24:58;;;;;;;2.60;1.45;;;;;;;17.85;100.00;100055.84;7400172;19;20026;-57
2023/09/02 02:27:24;;;;;;;7.40;1.17;;;;;;;17.81;100.00;100056.13;7393783;19;20086;-57
2023/09/02 02:29:50;;;;;;;6.75;2.30;;;;;;;17.77;100.00;100066.91;7395211;19;20010;-57
2023/09/02 02:32:17;;;;;;;2.88;1.35;;;;;;;17.74;100.00;100070.75;7395895;19;20011;-57
2023/09/02 02:34:43;;;;;;;4.75;1.67;;;;;;;17.73;100.00;100077.69;7398168;19;20014;-57
2023/09/02 02:37:10;;;;;;;5.82;2.50;;;;;;;17.70;100.00;100083.56;7393262;19;20010;-57
2023/09/02 02:39:36;;;;;;;4.18;1.77;;;;;;;17.71;100.00;100093.56;7393535;19;20011;-57
2023/09/02 02:42:02;;;;;;;8.77;1.92;;;;;;;17.67;100.00;100093.09;7393591;19;20017;-57
2023/09/02 02:44:28;;;;;;;5.47;1.25;;;;;;;17.65;100.00;100093.59;7396300;19;20024;-57
2023/09/02 02:46:54;;;;;;;5.68;1.33;;;;;;;17.64;100.00;100086.44;7392946;19;20014;-57
2023/09/02 02:49:21;;;;;;;3.33;1.92;;;;;;;17.64;100.00;100086.44;7392497;19;20022;-57
2023/09/02 02:51:47;;;;;;;3.38;0.98;;;;;;;17.59;100.00;100092.06;7391924;19;20102;-57
2023/09/02 02:54:14;;;;;;;4.70;1.92;;;;;;;17.55;100.00;100094.41;7392954;19;20010;-57
2023/09/02 02:56:41;;;;;;;8.15;2.08;;;;;;;17.50;100.00;100084.69;7393146;19;20026;-57
2023/09/02 02:59:07;;;;;;;5.80;1.35;;;;;;;17.50;100.00;100087.50;7392825;19;20014;-58
2023/09/02 03:01:33;;;;;;;4.78;1.75;;;;;;;17.47;100.00;100093.38;7391770;19;20467;-58
2023/09/02 03:04:00;;;;;;;5.70;1.05;;;;;;;17.48;100.00;100095.66;7393946;19;20031;-57
2023/09/02 03:06:27;;;;;;;2.95;1.35;;;;;;;17.55;100.00;100103.63;7392955;19;20066;-57
2023/09/02 03:08:53;;;;;;;5.75;2.55;;;;;;;17.30;100.00;100102.63;7393849;19;20018;-57
2023/09/02 03:11:19;;;;;;;2.83;1.75;;;;;;;17.53;100.00;100102.59;7392629;19;20463;-57
2023/09/02 03:13:45;;;;;;;8.45;1.33;;;;;;;17.64;100.00;100106.16;7393643;19;20404;-57
2023/09/02 03:16:16;;;;;;;9.80;1.70;;;;;;;17.65;100.00;100102.03;7394690;19;20078;-57
2023/09/02 03:18:42;;;;;;;3.28;1.35;;;;;;;17.58;100.00;100104.63;7393092;19;20103;-57
2023/09/02 03:21:09;;;;;;;2.47;0.73;;;;;;;17.59;100.00;100100.53;7392408;19;20014;-57
2023/09/02 03:23:36;;;;;;;0.50;0.28;;;;;;;17.80;100.00;100105.28;7395831;19;20007;-57
2023/09/02 03:26:19;;;;;;;6.28;1.88;;;;;;;17.92;100.00;100101.16;7393436;19;20007;-57
2023/09/02 03:28:49;;;;;;;2.42;0.70;;;;;;;18.10;100.00;100113.88;7392349;19;20010;-57
2023/09/02 03:31:17;;;;;;;3.08;1.80;;;;;;;18.24;100.00;100109.16;7391629;19;20366;-57
2023/09/02 03:33:43;;;;;;;2.17;1.42;;;;;;;18.30;100.00;100104.25;7393203;19;20011;-57
2023/09/02 03:36:18;;;;;;;2.25;1.63;;;;;;;18.36;100.00;100110.63;7392319;19;20503;-57
2023/09/02 03:38:45;;;;;;;4.05;1.65;;;;;;;18.35;100.00;100100.63;7394531;19;20015;-57
2023/09/02 03:41:17;;;;;;;9.07;1.77;;;;;;;18.33;100.00;100100.38;7392420;19;20023;-57
2023/09/02 03:43:44;;;;;;;;;;;;;;;18.32;100.00;100110.16;7392838;19;20007;-57
2023/09/02 03:46:11;;;;;;;5.13;2.25;;;;;;;18.30;100.00;100101.44;7391056;19;20271;-57
2023/09/02 03:48:37;;;;;;;10.68;1.50;;;;;;;18.35;100.00;100103.44;7391248;19;20015;-57
2023/09/02 03:51:11;;;;;;;5.93;1.83;;;;;;;18.30;100.00;100107.81;7391724;19;20014;-57
2023/09/02 03:53:39;;;;;;;4.05;1.35;;;;;;;18.25;100.00;100099.41;7392610;19;20011;-57
2023/09/02 03:56:05;;;;;;;6.13;2.10;;;;;;;18.18;100.00;100112.78;7391798;19;20357;-58
2023/09/02 03:58:34;;;;;;;3.15;1.63;;;;;;;18.02;100.00;100110.81;7391255;19;20014;-58
2023/09/02 04:01:00;;;;;;;5.55;1.58;;;;;;;17.97;100.00;100117.28;7391385;19;20084;-57
2023/09/02 04:03:29;;;;;;;4.93;1.95;;;;;;;17.96;100.00;100118.53;7391800;19;20096;-57
2023/09/02 04:05:55;;;;;;;6.30;1.02;;;;;;;17.89;100.00;100124.72;7391838;19;20014;-57
2023/09/02 04:08:23;;;;;;;2.92;1.85;;;;;;;17.83;100.00;100124.00;7393071;19;20455;-57
2023/09/02 04:10:51;;;;;;;4.88;1.45;;;;;;;17.74;100.00;100129.13;7390896;19;20052;-57
2023/09/02 04:13:22;;;;;;;8.45;1.77;;;;;;;17.73;100.00;100119.94;7390298;19;20118;-57
2023/09/02 04:15:52;;;;;;;3.47;1.10;;;;;;;17.68;100.00;100126.34;7391274;19;20014;-57
2023/09/02 04:18:18;;;;;;;2.65;1.25;;;;;;;17.64;100.00;100125.88;7391097;19;20018;-57
2023/09/02 04:20:45;;;;;;;1.88;0.85;;;;;;;17.59;100.00;100132.28;7390566;19;20018;-57
2023/09/02 04:23:11;;;;;;;1.45;0.65;;;;;;;17.56;100.00;100129.75;7391603;19;20495;-57
2023/09/02 04:25:46;;;;;;;9.18;2.08;;;;;;;17.56;100.00;100124.88;7390730;19;20011;-56
2023/09/02 04:28:13;;;;;;;1.88;0.82;;;;;;;17.53;100.00;100131.53;7390050;19;20031;-57
2023/09/02 04:30:40;;;;;;;4.00;1.88;;;;;;;17.51;100.00;100122.06;7390106;19;20011;-57
2023/09/02 04:33:07;;;;;;;4.88;1.00;;;;;;;17.44;100.00;100134.59;7390295;19;20014;-57
2023/09/02 04:35:38;;;;;;;3.08;1.52;;;;;;;17.39;100.00;100129.75;7390931;19;20490;-57
2023/09/02 04:38:05;;;;;;;3.30;2.22;;;;;;;17.35;100.00;100135.66;7390626;19;20488;-57
2023/09/02 04:40:39;;;;;;;7.30;1.88;;;;;;;17.37;100.00;100135.13;7391879;19;20018;-57
2023/09/02 04:43:07;;;;;;;6.72;1.65;;;;;;;17.38;100.00;100145.09;7397553;19;20022;-57
2023/09/02 04:45:34;;;;;;;5.15;1.67;;;;;;;17.43;100.00;100144.34;7398802;19;20046;-57
2023/09/02 04:48:03;;;;;;;6.13;1.33;;;;;;;17.43;100.00;100135.91;7396809;19;20011;-57
2023/09/02 04:50:33;;;;;;;1.75;1.10;;;;;;;17.43;100.00;100141.53;7396789;19;20086;-57
2023/09/02 04:53:01;;;;;;;2.83;1.15;;;;;;;17.42;100.00;100142.78;7398441;19;20028;-57
2023/09/02 04:55:31;;;;;;;4.00;1.45;;;;;;;17.14;100.00;100144.91;7397424;19;20026;-57
2023/09/02 04:57:58;;;;;;;6.47;2.45;;;;;;;17.02;100.00;100143.38;7398457;19;20075;-57
2023/09/02 05:00:26;;;;;;;5.00;1.42;;;;;;;17.07;100.00;100151.03;7397509;19;20459;-57
2023/09/02 05:02:53;;;;;;;4.35;1.63;;;;;;;17.05;100.00;100150.78;7397759;19;20045;-57
2023/09/02 05:05:21;;;;;;;3.33;1.05;;;;;;;17.08;100.00;100152.59;7400926;19;20463;-57
2023/09/02 05:07:48;;;;;;;6.05;2.10;;;;;;;17.06;100.00;100160.78;7396761;19;20035;-56
2023/09/02 05:10:15;;;;;;;1.65;1.05;;;;;;;17.08;100.00;100169.47;7397676;19;20010;-56
2023/09/02 05:12:42;;;;;;;6.00;1.60;;;;;;;17.11;100.00;100169.19;7396286;19;20014;-57
2023/09/02 05:15:09;;;;;;;5.20;1.55;;;;;;;17.13;100.00;100171.53;7395373;19;20070;-57
2023/09/02 05:17:37;;;;;;;8.88;3.05;;;;;;;17.10;100.00;100176.13;7399610;19;20006;-57
2023/09/02 05:20:04;;;;;;;8.77;1.75;;;;;;;17.11;100.00;100174.06;7397117;19;20011;-57
2023/09/02 05:22:31;;;;;;;3.83;0.85;;;;;;;17.15;100.00;100177.41;7398668;19;20014;-57
2023/09/02 05:24:57;;;;;;;6.45;1.75;;;;;;;17.13;100.00;100188.41;7397667;19;20011;-57
2023/09/02 05:27:24;;;;;;;8.45;2.00;;;;;;;17.13;100.00;100188.41;7397529;19;20019;-56
2023/09/02 05:29:51;;;;;;;8.10;2.65;;;;;;;17.16;100.00;100190.19;7400310;19;20475;-56
2023/09/02 05:32:17;;;;;;;4.60;1.38;;;;;;;17.23;100.00;100192.47;7398228;19;20022;-57
2023/09/02 05:34:43;;;;;;;1.42;1.33;;;;;;;17.34;100.00;100198.09;7401393;19;20015;-57
2023/09/02 05:37:10;;;;;;;6.68;1.48;;;;;;;17.39;100.00;100211.38;7396991;19;20035;-57
2023/09/02 05:39:36;;;;;;;2.05;0.93;;;;;;;17.48;100.00;100216.75;7396765;19;20021;-57
2023/09/02 05:42:02;;;;;;;2.92;1.45;;;;;;;17.58;100.00;100218.06;7399648;19;20108;-57
2023/09/02 05:44:29;;;;;;;8.73;1.92;;;;;;;17.67;100.00;100237.47;7397532;19;20477;-59
2023/09/02 05:46:55;;;;;;;1.77;0.68;;;;;;;17.76;100.00;100240.03;7396173;19;20010;-57
2023/09/02 05:49:21;;;;;;;3.67;1.50;;;;;;;17.85;100.00;100236.94;7395617;19;20341;-57
2023/09/02 05:51:48;;;;;;;1.42;0.90;;;;;;;17.92;100.00;100236.41;7395036;19;20016;-58
2023/09/02 05:54:14;;;;;;;2.78;1.17;;;;;;;18.04;100.00;100242.78;7397310;19;20049;-59
2023/09/02 05:56:41;;;;;;;5.20;1.80;;;;;;;18.13;100.00;100239.66;7395080;19;20010;-57
2023/09/02 05:59:07;;;;;;;3.45;1.45;;;;;;;18.22;100.00;100253.47;7397349;19;20482;-57
2023/09/02 06:01:33;;;;;;;2.70;1.52;;;;;;;18.29;100.00;100260.63;7395656;19;20014;-57
2023/09/02 06:03:59;;;;;;;3.42;0.82;;;;;;;18.34;100.00;100252.16;7396854;19;20024;-57
2023/09/02 06:06:25;;;;;;;3.97;1.65;;;;;;;18.41;100.00;100264.94;7401111;19;20475;-57
2023/09/02 06:08:53;;;;;;;7.30;1.65;;;;;;;18.47;100.00;100271.34;7396828;19;20506;-57
2023/09/02 06:11:19;;;;;;;3.38;1.35;;;;;;;18.53;100.00;100294.66;7395367;19;20015;-56
2023/09/02 06:13:45;;;;;;;2.75;1.20;;;;;;;18.59;100.00;100295.38;7392851;19;20035;-56
2023/09/02 06:16:12;;;;;;;4.68;1.45;;;;;;;18.64;100.00;100300.25;7395663;19;20017;-57
2023/09/02 06:18:38;;;;;;;1.63;0.75;;;;;;;18.70;100.00;100303.78;7398562;19;20017;-56
2023/09/02 06:21:12;;;;;;;7.07;2.10;;;;;;;18.77;100.00;100308.91;7395975;19;20030;-57
2023/09/02 06:23:43;;;;;;;3.05;0.77;;;;;;;18.89;100.00;100305.47;7398430;19;20013;-57
2023/09/02 06:26:11;;;;;;;4.78;1.27;;;;;;;18.98;100.00;100307.22;7396950;19;20038;-56
2023/09/02 06:28:38;;;;;;;4.45;1.67;;;;;;;19.02;100.00;100313.34;7395660;19;20002;-57
2023/09/02 06:31:13;;;;;;;6.20;1.58;;;;;;;19.07;100.00;100304.09;7396510;19;20011;-56
2023/09/02 06:33:39;;;;;;;3.28;1.58;;;;;;;19.14;100.00;100320.47;7397031;19;20036;-57
2023/09/02 06:36:10;;;;;;;5.43;1.08;;;;;;;19.20;100.00;100312.72;7396062;19;20014;-57
2023/09/02 06:38:36;;;;;;;3.63;1.38;;;;;;;19.26;100.00;100313.44;7395414;19;20015;-57
2023/09/02 06:41:13;;;;;;;3.75;1.75;;;;;;;19.35;100.00;100313.16;7392636;19;20088;-57
2023/09/02 06:43:40;;;;;;;3.17;1.17;;;;;;;19.41;100.00;100318.75;7395340;19;20030;-57
2023/09/02 06:46:17;;;;;;;3.05;1.10;;;;;;;19.46;100.00;100324.38;7394433;19;20014;-57
2023/09/02 06:48:44;;;;;;;4.55;1.50;;;;;;;19.51;100.00;100320.72;7393925;19;20014;-57
2023/09/02 06:51:10;;;;;;;3.92;2.00;;;;;;;19.56;100.00;100334.03;7388189;19;20533;-57
2023/09/02 06:53:36;;;;;;;6.38;1.08;;;;;;;19.64;100.00;100339.91;7391338;19;21095;-57
2023/09/02 06:56:07;;;;;;;3.83;1.02;;;;;;;19.71;100.00;100342.13;7389062;19;20018;-57
2023/09/02 06:58:35;;;;;;;3.55;1.42;;;;;;;19.81;100.00;100349.00;7390619;19;20059;-57
2023/09/02 07:01:01;;;;;;;2.17;0.60;;;;;;;19.86;100.00;100345.31;7387587;19;20040;-57
2023/09/02 07:03:28;;;;;;;5.00;1.73;;;;;;;19.95;100.00;100347.81;7387828;19;20420;-57
2023/09/02 07:06:06;;;;;;;7.32;1.83;;;;;;;20.07;100.00;100348.50;7393801;19;20014;-57
2023/09/02 07:08:32;;;;;;;4.45;1.17;;;;;;;20.16;100.00;100356.63;7393449;19;20475;-56
2023/09/02 07:10:59;;;;;;;6.15;1.48;;;;;;;20.26;100.00;100355.00;7394604;19;20007;-56
2023/09/02 07:13:25;;;;;;;7.18;1.35;;;;;;;20.32;100.00;100352.88;7389228;19;20011;-56
2023/09/02 07:16:02;;;;;;;6.75;2.15;;;;;;;20.45;100.00;100349.38;7390790;19;20026;-57
2023/09/02 07:18:29;;;;;;;2.30;1.23;;;;;;;20.51;100.00;100350.84;7389381;19;20018;-57
2023/09/02 07:21:00;;;;;;;5.60;1.27;;;;;;;20.64;100.00;100361.53;7388740;19;20035;-57
2023/09/02 07:23:27;;;;;;;6.80;1.83;;;;;;;20.70;100.00;100356.56;7392148;19;20471;-56
2023/09/02 07:25:53;;;;;;;6.70;2.20;;;;;;;20.78;100.00;100363.91;7390199;19;20014;-56
2023/09/02 07:28:19;;;;;;;6.05;1.27;;;;;;;20.84;100.00;100370.25;7392324;19;20362;-56
2023/09/02 07:30:45;;;;;;;3.40;1.80;;;;;;;20.91;100.00;100363.22;7391418;19;20459;-56
2023/09/02 07:33:11;;;;;;;8.75;1.70;;;;;;;20.98;100.00;100362.63;7393253;19;20022;-56
2023/09/02 07:35:38;;;;;;;9.80;1.52;;;;;;;21.02;100.00;100361.00;7393089;19;20021;-56
2023/09/02 07:38:04;;;;;;;3.92;0.88;;;;;;;21.05;100.00;100365.63;7391976;19;20365;-57
2023/09/02 07:40:33;;;;;;;9.52;1.40;;;;;;;21.13;100.00;100377.88;7395892;19;20397;-57
2023/09/02 07:43:03;;;;;;;2.30;0.88;;;;;;;21.22;100.00;100381.63;7391701;19;20014;-57
2023/09/02 07:45:30;;;;;;;7.30;2.13;;;;;;;21.23;100.00;100383.91;7393487;19;20014;-57
2023/09/02 07:47:56;;;;;;;8.50;2.10;;;;;;;21.81;100.00;100393.31;7391819;19;20088;-57
2023/09/02 07:50:22;;;;;;;3.90;1.95;;;;;;;21.29;100.00;100403.69;7393288;19;20031;-57
2023/09/02 07:52:48;;;;;;;7.22;1.67;;;;;;;21.26;100.00;100404.75;7391904;19;20030;-57
2023/09/02 07:55:15;;;;;;;4.13;1.75;;;;;;;21.33;100.00;100404.13;7397958;19;20035;-57
2023/09/02 07:57:42;;;;;;;9.45;2.55;;;;;;;21.42;100.00;100412.25;7392321;19;20014;-57
2023/09/02 08:00:08;;;;;;;8.00;1.80;;;;;;;21.52;100.00;100416.22;7393016;19;20028;-57
2023/09/02 08:02:41;;;;;;;4.38;1.20;;;;;;;21.60;100.00;100419.94;7390327;19;20484;-57
2023/09/02 08:05:07;;;;;;;6.15;1.58;;;;;;;21.62;100.00;100434.34;7395125;19;20380;-57
2023/09/02 08:07:34;;;;;;;5.13;1.65;;;;;;;21.60;100.00;100434.13;7393008;19;20006;-57
2023/09/02 08:10:04;;;;;;;7.68;1.65;;;;;;;21.70;100.00;100433.19;7392878;19;20011;-57
2023/09/02 08:12:31;;;;;;;11.15;2.40;;;;;;;21.76;100.00;100435.94;7390034;19;20011;-57
2023/09/02 08:14:57;;;;;;;5.43;1.52;;;;;;;21.81;100.00;100429.41;7392290;19;20038;-57
2023/09/02 08:17:25;;;;;;;8.65;2.33;;;;;;;21.88;100.00;100438.09;7402440;19;20374;-57
2023/09/02 08:19:51;;;;;;;8.82;2.15;;;;;;;21.98;100.00;100446.19;7400049;19;20010;-57
2023/09/02 08:22:17;;;;;;;6.55;1.30;;;;;;;22.11;100.00;100441.31;7401579;19;20018;-57
2023/09/02 08:24:43;;;;;;;4.15;1.13;;;;;;;22.19;100.00;100444.28;7403343;19;20485;-57
2023/09/02 08:27:10;;;;;;;3.58;0.85;;;;;;;22.29;100.00;100443.31;7400592;19;20014;-57
2023/09/02 08:29:37;;;;;;;4.28;0.85;;;;;;;22.33;100.00;100438.09;7401555;19;20026;-57
2023/09/02 08:32:03;;;;;;;4.32;1.48;;;;;;;24.73;100.00;100437.84;7399273;19;20059;-57
2023/09/02 08:34:30;;;;;;;6.95;1.52;;;;;;;33.09;78.93;100410.63;7398463;19;20018;-57
2023/09/02 08:36:59;;;;;;;3.15;1.73;;;;;;;24.53;100.00;100430.09;7397236;19;20358;-57
2023/09/02 08:39:28;;;;;;;3.22;1.80;;;;;;;23.12;100.00;100429.59;7397289;19;20046;-57
2023/09/02 08:41:55;;;;;;;4.68;1.20;;;;;;;22.76;100.00;100437.81;7401754;19;20014;-57
2023/09/02 08:44:25;;;;;;;2.25;0.88;;;;;;;22.60;100.00;100444.59;7398274;19;20010;-57
2023/09/02 08:46:53;;;;;;;2.13;1.35;;;;;;;22.50;100.00;100446.31;7398431;19;20018;-57
2023/09/02 08:49:20;;;;;;;2.70;1.27;;;;;;;22.42;100.00;100445.41;7401385;19;20030;-57
2023/09/02 08:51:47;;;;;;;0.88;0.75;;;;;;;22.29;100.00;100443.31;7399350;19;20408;-57
2023/09/02 08:54:14;;;;;;;7.38;1.83;;;;;;;22.22;100.00;100449.63;7401350;19;20066;-57
2023/09/02 08:56:42;;;;;;;0.93;0.65;;;;;;;22.13;100.00;100452.91;7398551;19;20015;-57
2023/09/02 08:59:09;;;;;;;1.50;0.88;;;;;;;22.08;100.00;100461.50;7403526;19;20463;-61
2023/09/02 09:01:43;;;;;;;0.95;0.45;;;;;;;22.02;100.00;100455.16;7402003;19;20656;-60
2023/09/02 09:04:15;;;;;;;1.48;0.40;;;;;;;22.00;100.00;100457.78;7400007;19;20011;-61
2023/09/02 09:06:46;;;;;;;1.15;0.40;;;;;;;22.01;100.00;100468.56;7397593;19;20015;-61
2023/09/02 09:09:14;;;;;;;1.45;0.80;;;;;;;22.05;100.00;100462.56;7399839;19;20730;-61
2023/09/02 09:11:42;;;;;;;0.98;0.88;;;;;;;22.09;100.00;100455.28;7403341;19;20018;-61
2023/09/02 09:14:24;;;;;;;2.92;0.95;;;;;;;22.24;100.00;100452.69;7399311;19;20018;-61
2023/09/02 09:16:54;;;;;;;6.93;0.25;;;;;;;22.34;100.00;100455.88;7399082;19;20340;-61
2023/09/02 09:19:25;;;;;;;0.60;0.32;;;;;;;22.35;100.00;100455.34;7400625;19;20019;-61
2023/09/02 09:21:51;;;;;;;;;;;;;;;22.34;100.00;100459.50;7398701;19;20014;-62
2023/09/02 09:24:18;;;;;;;0.98;0.60;;;;;;;22.40;100.00;100457.31;7399603;19;20309;-61
2023/09/02 09:26:45;;;;;;;2.53;0.65;;;;;;;22.38;100.00;100457.09;7399281;19;20014;-62
2023/09/02 09:29:13;;;;;;;1.95;0.38;;;;;;;22.45;100.00;100450.78;7397638;19;20018;-62
2023/09/02 09:31:39;;;;;;;0.35;0.20;;;;;;;22.41;100.00;100463.78;7399412;19;20369;-61
2023/09/02 09:34:06;;;;;;;1.85;0.40;;;;;;;22.53;100.00;100462.25;7399704;19;20070;-61
2023/09/02 09:36:33;;;;;;;6.13;0.88;;;;;;;22.64;100.00;100462.06;7399189;19;20015;-61
2023/09/02 09:39:01;;;;;;;1.20;0.90;;;;;;;22.80;100.00;100466.69;7398923;19;20048;-61
2023/09/02 09:41:28;;;;;;;2.20;0.93;;;;;;;22.83;100.00;100470.47;7398010;19;20025;-61
2023/09/02 09:44:10;;;;;;;0.50;0.40;;;;;;;22.97;100.00;100469.94;7399615;19;20078;-61
2023/09/02 09:46:42;;;;;;;2.33;0.30;;;;;;;23.11;100.00;100462.16;7397669;19;20025;-61
2023/09/02 09:49:20;;;;;;;4.68;0.75;;;;;;;23.37;100.00;100476.38;7398652;19;20053;-61
2023/09/02 09:51:47;;;;;;;0.85;0.75;;;;;;;23.55;100.00;100463.31;7398416;19;20035;-61
2023/09/02 09:54:13;;;;;;;0.50;0.20;;;;;;;23.69;100.00;100471.25;7397579;19;20011;-61
2023/09/02 09:56:43;;;;;;;1.85;0.82;;;;;;;23.90;100.00;100477.75;7397588;19;20029;-61
2023/09/02 09:59:09;;;;;;;1.20;0.50;;;;;;;24.13;100.00;100477.25;7397550;19;20019;-61
2023/09/02 10:01:36;;;;;;;0.35;0.25;;;;;;;24.31;100.00;100476.25;7397368;19;20066;-61
2023/09/02 10:04:07;;;;;;;1.05;0.40;;;;;;;24.40;100.00;100484.31;7399043;19;20018;-61
2023/09/02 10:06:40;;;;;;;0.30;0.20;;;;;;;24.50;100.00;100485.31;7397777;19;20010;-61
2023/09/02 10:09:06;;;;;;;1.73;0.43;;;;;;;24.58;100.00;100486.16;7397207;19;20010;-61
2023/09/02 10:11:32;;;;;;;0.80;0.30;;;;;;;24.56;100.00;100491.66;7397271;19;20021;-61
2023/09/02 10:14:00;;;;;;;0.80;0.30;;;;;;;36.27;87.61;100485.03;7395282;19;20011;-61
2023/09/02 10:16:28;;;;;;;0.98;0.30;;;;;;;42.83;47.09;100465.53;7397509;19;20325;-61
2023/09/02 10:18:55;;;;;;;0.40;0.25;;;;;;;44.88;38.34;100465.88;7397405;19;20400;-62
2023/09/02 10:21:24;;;;;;;0.65;0.20;;;;;;;44.70;38.29;100471.41;7399819;19;20014;-62
2023/09/02 10:23:55;;;;;;;1.05;0.57;;;;;;;46.94;34.28;100466.66;7400716;19;20536;-62
2023/09/02 10:26:31;;;;;;;0.10;0.10;;;;;;;47.73;32.75;100465.13;7396625;19;20015;-62
2023/09/02 10:29:00;;;;;;;0.88;0.13;;;;;;;47.96;31.38;100467.47;7397304;19;20015;-62
2023/09/02 10:31:32;;;;;;;0.10;0.00;;;;;;;48.67;29.73;100467.78;7396919;19;20095;-62
2023/09/02 10:34:10;;;;;;;0.45;0.30;;;;;;;45.94;31.77;100466.91;7397108;19;20036;-62
2023/09/02 10:36:41;;;;;;;2.38;0.20;;;;;;;40.13;35.42;100478.47;7399389;19;20014;-61
2023/09/02 10:39:16;;;;;;;0.32;0.00;;;;;;;41.51;34.51;100468.13;7395804;19;20018;-61
2023/09/02 10:41:44;;;;;;;0.32;0.20;;;;;;;36.45;42.83;100477.34;7400938;19;20025;-61
2023/09/02 10:44:11;;;;;;;0.22;0.10;;;;;;;36.04;44.82;100485.97;7397078;19;20011;-61
2023/09/02 10:46:40;;;;;;;0.43;0.10;;;;;;;35.75;46.68;100488.66;7392445;19;20015;-61
2023/09/02 10:49:07;;;;;;;0.15;0.10;;;;;;;35.61;48.10;100491.50;7396060;19;20308;-61
2023/09/02 10:51:33;;;;;;;0.40;0.10;;;;;;;35.52;49.30;100495.31;7393769;19;20011;-61
2023/09/02 10:54:01;;;;;;;0.10;0.10;;;;;;;35.65;49.94;100494.63;7396873;19;20014;-61
2023/09/02 10:56:32;;;;;;;1.27;0.30;;;;;;;35.58;49.16;100489.91;7396697;19;20062;-61
2023/09/02 10:59:03;;;;;;;1.35;0.30;;;;;;;35.42;48.68;100486.03;7396566;19;20014;-62
2023/09/02 11:01:49;;;;;;;0.20;0.20;;;;;;;35.36;48.91;100488.56;7395806;19;20062;-61
2023/09/02 11:04:41;;;;;;;0.10;0.10;;;;;;;35.22;49.88;100487.72;7396972;19;20014;-61
2023/09/02 11:07:19;;;;;;;1.38;0.30;;;;;;;38.43;44.62;100494.56;7394108;19;20027;-61
2023/09/02 11:09:56;;;;;;;0.30;0.20;;;;;;;36.12;48.00;100491.47;7393467;19;20093;-62
2023/09/02 11:12:22;;;;;;;0.30;0.20;;;;;;;35.63;49.99;100494.50;7394774;19;20014;-61
2023/09/02 11:15:07;;;;;;;0.40;0.28;;;;;;;36.13;48.41;100498.75;7397666;19;20041;-62
2023/09/02 11:17:37;;;;;;;0.20;0.10;;;;;;;35.77;49.25;100489.53;7395226;19;20074;-62
2023/09/02 11:20:08;;;;;;;0.52;0.20;;;;;;;36.55;48.81;100492.41;7395619;19;20059;-62
2023/09/02 11:23:04;;;;;;;0.85;0.10;;;;;;;39.07;41.95;100478.50;7395136;19;20018;-62
2023/09/02 11:25:31;;;;;;;1.10;0.10;;;;;;;36.83;44.79;100475.72;7395236;19;20018;-62